sensor_id;sensor_type;location;lat;lon;timestamp;temperature;humidity
55008;DHT22;40902;45.116;21.296;2023-01-10T00:02:22;205.70;2252.80
55008;DHT22;40902;45.116;21.296;2023-01-10T00:04:48;205.70;2252.80
55008;DHT22;40902;45.116;21.296;2023-01-10T00:07:13;205.70;2252.80
55008;DHT22;40902;45.116;21.296;2023-01-10T00:09:39;205.70;2252.80
55008;DHT22;40902;45.116;21.296;2023-01-10T00:12:05;205.70;2252.80
55008;DHT22;40902;45.116;21.296;2023-01-10T00:14:49;205.70;2252.80
55008;DHT22;40902;45.116;21.296;2023-01-10T00:17:15;205.70;2252.80
55008;DHT22;40902;45.116;21.296;2023-01-10T00:19:41;205.70;2252.80
55008;DHT22;40902;45.116;21.296;2023-01-10T00:22:06;205.70;2252.80
55008;DHT22;40902;45.116;21.296;2023-01-10T00:24:33;205.70;2252.80
55008;DHT22;40902;45.116;21.296;2023-01-10T00:26:59;205.70;2252.80
55008;DHT22;40902;45.116;21.296;2023-01-10T00:29:28;205.70;2252.80
55008;DHT22;40902;45.116;21.296;2023-01-10T00:31:55;230.40;2252.80
55008;DHT22;40902;45.116;21.296;2023-01-10T00:34:22;230.40;2252.80
55008;DHT22;40902;45.116;21.296;2023-01-10T00:36:47;230.40;2252.80
55008;DHT22;40902;45.116;21.296;2023-01-10T00:39:14;205.70;2252.80
55008;DHT22;40902;45.116;21.296;2023-01-10T00:41:40;205.70;2252.80
55008;DHT22;40902;45.116;21.296;2023-01-10T00:44:24;230.40;2252.80
55008;DHT22;40902;45.116;21.296;2023-01-10T00:46:51;230.40;2252.80
55008;DHT22;40902;45.116;21.296;2023-01-10T00:49:17;230.40;2252.80
55008;DHT22;40902;45.116;21.296;2023-01-10T00:51:43;230.40;2252.80
55008;DHT22;40902;45.116;21.296;2023-01-10T00:54:10;230.40;2252.80
55008;DHT22;40902;45.116;21.296;2023-01-10T00:56:36;230.40;2252.80
55008;DHT22;40902;45.116;21.296;2023-01-10T00:59:02;230.40;2252.80
55008;DHT22;40902;45.116;21.296;2023-01-10T01:01:27;230.40;2252.80
55008;DHT22;40902;45.116;21.296;2023-01-10T01:03:53;230.40;2252.80
55008;DHT22;40902;45.116;21.296;2023-01-10T01:06:19;230.50;2252.80
55008;DHT22;40902;45.116;21.296;2023-01-10T01:08:45;230.50;2252.80
55008;DHT22;40902;45.116;21.296;2023-01-10T01:11:10;230.50;2252.80
55008;DHT22;40902;45.116;21.296;2023-01-10T01:13:36;230.50;2252.80
55008;DHT22;40902;45.116;21.296;2023-01-10T01:16:02;230.50;2252.80
55008;DHT22;40902;45.116;21.296;2023-01-10T01:18:28;230.50;2252.80
55008;DHT22;40902;45.116;21.296;2023-01-10T01:20:55;230.60;2252.80
55008;DHT22;40902;45.116;21.296;2023-01-10T01:23:22;230.60;2252.80
55008;DHT22;40902;45.116;21.296;2023-01-10T01:25:52;230.60;2252.80
55008;DHT22;40902;45.116;21.296;2023-01-10T01:28:18;230.60;2252.80
55008;DHT22;40902;45.116;21.296;2023-01-10T01:30:44;230.70;2252.80
55008;DHT22;40902;45.116;21.296;2023-01-10T01:33:10;230.60;2252.80
55008;DHT22;40902;45.116;21.296;2023-01-10T01:35:36;230.70;2252.80
55008;DHT22;40902;45.116;21.296;2023-01-10T01:38:02;230.70;2252.80
55008;DHT22;40902;45.116;21.296;2023-01-10T01:40:28;230.70;2252.80
55008;DHT22;40902;45.116;21.296;2023-01-10T01:42:53;230.80;2252.80
55008;DHT22;40902;45.116;21.296;2023-01-10T01:48:16;230.70;2252.80
55008;DHT22;40902;45.116;21.296;2023-01-10T01:50:58;230.80;2252.80
55008;DHT22;40902;45.116;21.296;2023-01-10T01:56:18;230.80;2252.80
55008;DHT22;40902;45.116;21.296;2023-01-10T01:58:53;230.90;2252.80
55008;DHT22;40902;45.116;21.296;2023-01-10T02:01:21;230.90;2252.80
55008;DHT22;40902;45.116;21.296;2023-01-10T02:03:50;230.90;2252.80
55008;DHT22;40902;45.116;21.296;2023-01-10T02:06:20;230.90;2252.80
55008;DHT22;40902;45.116;21.296;2023-01-10T02:08:54;230.90;2252.80
55008;DHT22;40902;45.116;21.296;2023-01-10T02:11:21;230.90;2252.80
55008;DHT22;40902;45.116;21.296;2023-01-10T02:13:48;230.90;2252.80
55008;DHT22;40902;45.116;21.296;2023-01-10T02:16:14;230.90;2252.80
55008;DHT22;40902;45.116;21.296;2023-01-10T02:18:41;230.90;2252.80
55008;DHT22;40902;45.116;21.296;2023-01-10T02:22:04;230.90;2252.80
55008;DHT22;40902;45.116;21.296;2023-01-10T02:30:21;230.80;2252.80
55008;DHT22;40902;45.116;21.296;2023-01-10T02:36:07;230.80;2252.80
55008;DHT22;40902;45.116;21.296;2023-01-10T02:44:12;230.80;2252.80
55008;DHT22;40902;45.116;21.296;2023-01-10T02:46:39;230.80;2252.80
55008;DHT22;40902;45.116;21.296;2023-01-10T02:49:05;230.90;2252.80
55008;DHT22;40902;45.116;21.296;2023-01-10T02:51:31;230.80;2252.80
55008;DHT22;40902;45.116;21.296;2023-01-10T02:54:04;230.90;2252.80
55008;DHT22;40902;45.116;21.296;2023-01-10T02:56:51;230.80;2252.80
55008;DHT22;40902;45.116;21.296;2023-01-10T03:02:09;230.80;2252.80
55008;DHT22;40902;45.116;21.296;2023-01-10T03:07:38;230.80;2252.80
55008;DHT22;40902;45.116;21.296;2023-01-10T03:10:12;230.70;2252.80
55008;DHT22;40902;45.116;21.296;2023-01-10T03:15:20;230.70;2252.80
55008;DHT22;40902;45.116;21.296;2023-01-10T03:17:49;230.70;2252.80
55008;DHT22;40902;45.116;21.296;2023-01-10T03:20:16;230.70;2252.80
55008;DHT22;40902;45.116;21.296;2023-01-10T03:22:46;230.70;2252.80
55008;DHT22;40902;45.116;21.296;2023-01-10T03:25:13;230.70;2252.80
55008;DHT22;40902;45.116;21.296;2023-01-10T03:30:26;230.70;2252.80
55008;DHT22;40902;45.116;21.296;2023-01-10T03:32:54;230.80;2252.80
55008;DHT22;40902;45.116;21.296;2023-01-10T03:35:27;230.80;2252.80
55008;DHT22;40902;45.116;21.296;2023-01-10T03:38:07;230.80;2252.80
55008;DHT22;40902;45.116;21.296;2023-01-10T03:40:42;230.90;2252.80
55008;DHT22;40902;45.116;21.296;2023-01-10T03:43:43;230.90;2252.80
55008;DHT22;40902;45.116;21.296;2023-01-10T03:46:42;230.90;2252.80
55008;DHT22;40902;45.116;21.296;2023-01-10T03:49:10;230.90;2252.80
55008;DHT22;40902;45.116;21.296;2023-01-10T03:51:38;230.90;2252.80
55008;DHT22;40902;45.116;21.296;2023-01-10T03:54:04;230.90;2252.80
55008;DHT22;40902;45.116;21.296;2023-01-10T03:56:30;230.80;2252.80
55008;DHT22;40902;45.116;21.296;2023-01-10T03:58:56;230.90;2252.80
55008;DHT22;40902;45.116;21.296;2023-01-10T04:01:22;230.90;2252.80
55008;DHT22;40902;45.116;21.296;2023-01-10T04:03:48;230.90;2252.80
55008;DHT22;40902;45.116;21.296;2023-01-10T04:06:14;230.90;2252.80
55008;DHT22;40902;45.116;21.296;2023-01-10T04:08:41;231.00;2252.80
55008;DHT22;40902;45.116;21.296;2023-01-10T04:11:07;230.90;2252.80
55008;DHT22;40902;45.116;21.296;2023-01-10T04:13:33;230.90;2252.80
55008;DHT22;40902;45.116;21.296;2023-01-10T04:15:59;230.90;2252.80
55008;DHT22;40902;45.116;21.296;2023-01-10T04:18:25;230.90;2252.80
55008;DHT22;40902;45.116;21.296;2023-01-10T04:20:51;231.00;2252.80
55008;DHT22;40902;45.116;21.296;2023-01-10T04:23:16;231.00;2252.80
55008;DHT22;40902;45.116;21.296;2023-01-10T04:25:46;231.00;2252.80
55008;DHT22;40902;45.116;21.296;2023-01-10T04:28:12;231.10;2252.80
55008;DHT22;40902;45.116;21.296;2023-01-10T04:30:37;231.10;2252.80
55008;DHT22;40902;45.116;21.296;2023-01-10T04:33:03;231.10;2252.80
55008;DHT22;40902;45.116;21.296;2023-01-10T04:35:29;231.10;2252.80
55008;DHT22;40902;45.116;21.296;2023-01-10T04:37:54;231.10;2252.80
55008;DHT22;40902;45.116;21.296;2023-01-10T04:40:20;231.00;2252.80
55008;DHT22;40902;45.116;21.296;2023-01-10T04:42:47;231.10;2252.80
55008;DHT22;40902;45.116;21.296;2023-01-10T04:45:13;231.10;2252.80
55008;DHT22;40902;45.116;21.296;2023-01-10T04:47:42;231.10;2252.80
55008;DHT22;40902;45.116;21.296;2023-01-10T04:50:08;231.20;2252.80
55008;DHT22;40902;45.116;21.296;2023-01-10T04:52:34;231.30;2252.80
55008;DHT22;40902;45.116;21.296;2023-01-10T04:54:59;231.30;2252.80
55008;DHT22;40902;45.116;21.296;2023-01-10T04:57:25;256.00;2252.80
55008;DHT22;40902;45.116;21.296;2023-01-10T04:59:51;256.00;2252.80
55008;DHT22;40902;45.116;21.296;2023-01-10T05:02:16;256.00;2252.80
55008;DHT22;40902;45.116;21.296;2023-01-10T05:04:42;256.00;2252.80
55008;DHT22;40902;45.116;21.296;2023-01-10T05:07:08;256.00;2252.80
55008;DHT22;40902;45.116;21.296;2023-01-10T05:09:34;231.30;2252.80
55008;DHT22;40902;45.116;21.296;2023-01-10T05:11:59;231.20;2252.80
55008;DHT22;40902;45.116;21.296;2023-01-10T05:14:25;231.20;2252.80
55008;DHT22;40902;45.116;21.296;2023-01-10T05:16:51;231.10;2252.80
55008;DHT22;40902;45.116;21.296;2023-01-10T05:19:16;231.10;2252.80
55008;DHT22;40902;45.116;21.296;2023-01-10T05:21:42;231.10;2252.80
55008;DHT22;40902;45.116;21.296;2023-01-10T05:24:08;231.10;2252.80
55008;DHT22;40902;45.116;21.296;2023-01-10T05:26:34;231.10;2252.80
55008;DHT22;40902;45.116;21.296;2023-01-10T05:28:59;231.20;2252.80
55008;DHT22;40902;45.116;21.296;2023-01-10T05:31:25;231.20;2252.80
55008;DHT22;40902;45.116;21.296;2023-01-10T05:33:51;231.10;2252.80
55008;DHT22;40902;45.116;21.296;2023-01-10T05:36:18;231.20;2252.80
55008;DHT22;40902;45.116;21.296;2023-01-10T05:38:44;231.20;2252.80
55008;DHT22;40902;45.116;21.296;2023-01-10T05:41:10;231.20;2252.80
55008;DHT22;40902;45.116;21.296;2023-01-10T05:43:36;231.20;2252.80
55008;DHT22;40902;45.116;21.296;2023-01-10T05:46:02;231.20;2252.80
55008;DHT22;40902;45.116;21.296;2023-01-10T05:48:27;231.30;2252.80
55008;DHT22;40902;45.116;21.296;2023-01-10T05:50:53;231.30;2252.80
55008;DHT22;40902;45.116;21.296;2023-01-10T05:53:19;256.00;2252.80
55008;DHT22;40902;45.116;21.296;2023-01-10T05:55:56;256.00;2252.80
55008;DHT22;40902;45.116;21.296;2023-01-10T05:58:23;256.00;2252.80
55008;DHT22;40902;45.116;21.296;2023-01-10T06:00:49;256.00;2252.80
55008;DHT22;40902;45.116;21.296;2023-01-10T06:03:15;256.10;2252.80
55008;DHT22;40902;45.116;21.296;2023-01-10T06:05:41;256.10;2252.80
55008;DHT22;40902;45.116;21.296;2023-01-10T06:08:07;256.10;2252.80
55008;DHT22;40902;45.116;21.296;2023-01-10T06:10:32;256.20;2252.80
55008;DHT22;40902;45.116;21.296;2023-01-10T06:12:58;256.20;2252.80
55008;DHT22;40902;45.116;21.296;2023-01-10T06:15:24;256.20;2252.80
55008;DHT22;40902;45.116;21.296;2023-01-10T06:17:50;256.30;2252.80
55008;DHT22;40902;45.116;21.296;2023-01-10T06:20:16;256.20;2252.80
55008;DHT22;40902;45.116;21.296;2023-01-10T06:22:43;256.20;2252.80
55008;DHT22;40902;45.116;21.296;2023-01-10T06:25:10;256.10;2252.80
55008;DHT22;40902;45.116;21.296;2023-01-10T06:27:40;256.00;2252.80
55008;DHT22;40902;45.116;21.296;2023-01-10T06:30:08;256.00;2252.80
55008;DHT22;40902;45.116;21.296;2023-01-10T06:32:35;231.30;2252.80
55008;DHT22;40902;45.116;21.296;2023-01-10T06:35:00;231.20;2252.80
55008;DHT22;40902;45.116;21.296;2023-01-10T06:37:26;231.20;2252.80
55008;DHT22;40902;45.116;21.296;2023-01-10T06:39:52;231.10;2252.80
55008;DHT22;40902;45.116;21.296;2023-01-10T06:42:17;231.00;2252.80
55008;DHT22;40902;45.116;21.296;2023-01-10T06:44:43;230.80;2252.80
55008;DHT22;40902;45.116;21.296;2023-01-10T06:47:09;230.70;2252.80
55008;DHT22;40902;45.116;21.296;2023-01-10T06:49:34;230.60;2252.80
55008;DHT22;40902;45.116;21.296;2023-01-10T06:52:00;230.60;2252.80
55008;DHT22;40902;45.116;21.296;2023-01-10T06:54:26;230.40;2252.80
55008;DHT22;40902;45.116;21.296;2023-01-10T06:56:52;230.40;2252.80
55008;DHT22;40902;45.116;21.296;2023-01-10T06:59:17;205.70;2252.80
55008;DHT22;40902;45.116;21.296;2023-01-10T07:01:43;205.70;2252.80
55008;DHT22;40902;45.116;21.296;2023-01-10T07:04:09;205.50;2252.80
55008;DHT22;40902;45.116;21.296;2023-01-10T07:06:38;205.50;2252.80
55008;DHT22;40902;45.116;21.296;2023-01-10T07:09:05;205.40;2252.80
55008;DHT22;40902;45.116;21.296;2023-01-10T07:11:32;205.20;2252.80
55008;DHT22;40902;45.116;21.296;2023-01-10T07:13:58;205.30;2252.80
55008;DHT22;40902;45.116;21.296;2023-01-10T07:16:24;205.10;2252.80
55008;DHT22;40902;45.116;21.296;2023-01-10T07:18:50;205.00;2252.80
55008;DHT22;40902;45.116;21.296;2023-01-10T07:21:16;204.90;2252.80
55008;DHT22;40902;45.116;21.296;2023-01-10T07:23:47;204.90;2252.80
55008;DHT22;40902;45.116;21.296;2023-01-10T07:26:14;204.90;2252.80
55008;DHT22;40902;45.116;21.296;2023-01-10T07:28:42;204.80;2252.80
55008;DHT22;40902;45.116;21.296;2023-01-10T07:31:08;204.90;2252.80
55008;DHT22;40902;45.116;21.296;2023-01-10T07:33:34;204.90;2252.80
55008;DHT22;40902;45.116;21.296;2023-01-10T07:36:00;205.00;2252.80
55008;DHT22;40902;45.116;21.296;2023-01-10T07:38:26;204.90;2252.80
55008;DHT22;40902;45.116;21.296;2023-01-10T07:40:52;204.90;2252.80
55008;DHT22;40902;45.116;21.296;2023-01-10T07:43:18;205.00;2252.80
55008;DHT22;40902;45.116;21.296;2023-01-10T07:45:44;204.90;2252.80
55008;DHT22;40902;45.116;21.296;2023-01-10T07:48:09;205.00;2252.80
55008;DHT22;40902;45.116;21.296;2023-01-10T07:50:35;205.10;2252.80
55008;DHT22;40902;45.116;21.296;2023-01-10T07:53:03;205.10;2252.80
55008;DHT22;40902;45.116;21.296;2023-01-10T07:55:29;205.00;2252.80
55008;DHT22;40902;45.116;21.296;2023-01-10T07:57:55;205.00;2252.80
55008;DHT22;40902;45.116;21.296;2023-01-10T08:00:21;205.00;2252.80
55008;DHT22;40902;45.116;21.296;2023-01-10T08:02:51;205.00;2252.80
55008;DHT22;40902;45.116;21.296;2023-01-10T08:05:17;204.90;2252.80
55008;DHT22;40902;45.116;21.296;2023-01-10T08:07:43;205.00;2252.80
55008;DHT22;40902;45.116;21.296;2023-01-10T08:10:10;205.00;2252.80
55008;DHT22;40902;45.116;21.296;2023-01-10T08:12:36;205.00;2252.80
55008;DHT22;40902;45.116;21.296;2023-01-10T08:15:01;205.00;2252.80
55008;DHT22;40902;45.116;21.296;2023-01-10T08:17:27;204.90;2252.80
55008;DHT22;40902;45.116;21.296;2023-01-10T08:19:53;204.90;2252.80
55008;DHT22;40902;45.116;21.296;2023-01-10T08:22:18;204.90;2252.80
55008;DHT22;40902;45.116;21.296;2023-01-10T08:24:44;205.00;2252.80
55008;DHT22;40902;45.116;21.296;2023-01-10T08:27:10;205.00;2252.80
55008;DHT22;40902;45.116;21.296;2023-01-10T08:29:36;205.00;2252.80
55008;DHT22;40902;45.116;21.296;2023-01-10T08:32:01;205.00;2252.80
55008;DHT22;40902;45.116;21.296;2023-01-10T08:34:27;205.00;2252.80
55008;DHT22;40902;45.116;21.296;2023-01-10T08:36:53;205.10;2252.80
55008;DHT22;40902;45.116;21.296;2023-01-10T08:39:20;205.20;2252.80
55008;DHT22;40902;45.116;21.296;2023-01-10T08:41:51;205.30;2252.80
55008;DHT22;40902;45.116;21.296;2023-01-10T08:44:17;205.20;2252.80
55008;DHT22;40902;45.116;21.296;2023-01-10T08:46:42;205.20;2252.80
55008;DHT22;40902;45.116;21.296;2023-01-10T08:49:08;205.30;2252.80
55008;DHT22;40902;45.116;21.296;2023-01-10T08:51:34;205.20;2252.80
55008;DHT22;40902;45.116;21.296;2023-01-10T08:54:00;205.20;2252.80
55008;DHT22;40902;45.116;21.296;2023-01-10T08:56:26;205.10;2252.80
55008;DHT22;40902;45.116;21.296;2023-01-10T08:58:52;204.90;2252.80
55008;DHT22;40902;45.116;21.296;2023-01-10T09:01:18;204.80;2252.80
55008;DHT22;40902;45.116;21.296;2023-01-10T09:03:45;180.00;2252.80
55008;DHT22;40902;45.116;21.296;2023-01-10T09:06:10;180.00;2252.80
55008;DHT22;40902;45.116;21.296;2023-01-10T09:08:36;180.00;2252.80
55008;DHT22;40902;45.116;21.296;2023-01-10T09:11:03;180.10;2252.80
55008;DHT22;40902;45.116;21.296;2023-01-10T09:13:29;204.80;2252.80
55008;DHT22;40902;45.116;21.296;2023-01-10T09:15:56;180.10;2252.80
55008;DHT22;40902;45.116;21.296;2023-01-10T09:18:22;180.10;2252.80
55008;DHT22;40902;45.116;21.296;2023-01-10T09:20:48;204.80;2252.80
55008;DHT22;40902;45.116;21.296;2023-01-10T09:23:16;204.90;2252.80
55008;DHT22;40902;45.116;21.296;2023-01-10T09:25:49;204.90;2252.80
55008;DHT22;40902;45.116;21.296;2023-01-10T09:28:16;204.80;2252.80
55008;DHT22;40902;45.116;21.296;2023-01-10T09:30:42;204.90;2252.80
55008;DHT22;40902;45.116;21.296;2023-01-10T09:33:09;204.90;2252.80
55008;DHT22;40902;45.116;21.296;2023-01-10T09:35:38;204.90;2252.80
55008;DHT22;40902;45.116;21.296;2023-01-10T09:38:06;204.90;2252.80
55008;DHT22;40902;45.116;21.296;2023-01-10T09:46:09;204.90;2252.80
55008;DHT22;40902;45.116;21.296;2023-01-10T09:51:21;204.90;2252.80
55008;DHT22;40902;45.116;21.296;2023-01-10T09:53:50;204.80;2252.80
55008;DHT22;40902;45.116;21.296;2023-01-10T09:56:18;204.90;2252.80
55008;DHT22;40902;45.116;21.296;2023-01-10T09:58:44;205.00;2252.80
55008;DHT22;40902;45.116;21.296;2023-01-10T10:01:17;205.00;2252.80
55008;DHT22;40902;45.116;21.296;2023-01-10T10:03:56;205.00;2252.80
55008;DHT22;40902;45.116;21.296;2023-01-10T10:06:24;204.90;2252.80
55008;DHT22;40902;45.116;21.296;2023-01-10T10:08:51;205.00;2252.80
55008;DHT22;40902;45.116;21.296;2023-01-10T10:16:43;205.00;2252.80
55008;DHT22;40902;45.116;21.296;2023-01-10T10:27:51;205.30;2252.80
55008;DHT22;40902;45.116;21.296;2023-01-10T10:35:29;205.40;2252.80
55008;DHT22;40902;45.116;21.296;2023-01-10T10:38:03;205.40;2252.80
55008;DHT22;40902;45.116;21.296;2023-01-10T10:40:36;205.40;2252.80
55008;DHT22;40902;45.116;21.296;2023-01-10T10:43:33;205.20;2252.80
55008;DHT22;40902;45.116;21.296;2023-01-10T10:46:12;205.10;2252.80
55008;DHT22;40902;45.116;21.296;2023-01-10T10:53:49;205.10;2252.80
55008;DHT22;40902;45.116;21.296;2023-01-10T10:56:19;205.10;2252.80
55008;DHT22;40902;45.116;21.296;2023-01-10T10:58:48;205.10;2252.80
55008;DHT22;40902;45.116;21.296;2023-01-10T11:01:16;205.10;2252.80
55008;DHT22;40902;45.116;21.296;2023-01-10T11:03:46;205.20;2252.80
55008;DHT22;40902;45.116;21.296;2023-01-10T11:06:14;205.10;2252.80
55008;DHT22;40902;45.116;21.296;2023-01-10T11:08:43;205.10;2252.80
55008;DHT22;40902;45.116;21.296;2023-01-10T11:11:25;205.10;2252.80
55008;DHT22;40902;45.116;21.296;2023-01-10T11:14:00;205.20;2252.80
55008;DHT22;40902;45.116;21.296;2023-01-10T11:16:41;205.20;2252.80
55008;DHT22;40902;45.116;21.296;2023-01-10T11:21:33;205.20;2252.80
55008;DHT22;40902;45.116;21.296;2023-01-10T11:24:00;205.20;2252.80
55008;DHT22;40902;45.116;21.296;2023-01-10T11:26:36;205.20;2252.80
55008;DHT22;40902;45.116;21.296;2023-01-10T11:31:40;205.30;2252.80
55008;DHT22;40902;45.116;21.296;2023-01-10T11:34:35;205.40;2252.80
55008;DHT22;40902;45.116;21.296;2023-01-10T11:39:41;205.50;2252.80
55008;DHT22;40902;45.116;21.296;2023-01-10T11:44:54;205.20;2252.80
55008;DHT22;40902;45.116;21.296;2023-01-10T11:47:20;205.20;2252.80
55008;DHT22;40902;45.116;21.296;2023-01-10T11:49:47;205.00;2252.80
55008;DHT22;40902;45.116;21.296;2023-01-10T11:54:42;204.90;2252.80
55008;DHT22;40902;45.116;21.296;2023-01-10T11:57:17;205.00;2252.80
55008;DHT22;40902;45.116;21.296;2023-01-10T12:00:06;205.00;2252.80
55008;DHT22;40902;45.116;21.296;2023-01-10T12:02:42;205.10;2252.80
55008;DHT22;40902;45.116;21.296;2023-01-10T12:05:17;205.10;2252.80
55008;DHT22;40902;45.116;21.296;2023-01-10T12:08:02;205.00;2252.80
55008;DHT22;40902;45.116;21.296;2023-01-10T12:10:31;205.00;2252.80
55008;DHT22;40902;45.116;21.296;2023-01-10T12:13:06;205.00;2252.80
55008;DHT22;40902;45.116;21.296;2023-01-10T12:15:32;205.00;2252.80
55008;DHT22;40902;45.116;21.296;2023-01-10T12:18:02;205.00;2252.80
55008;DHT22;40902;45.116;21.296;2023-01-10T12:20:41;205.10;2252.80
55008;DHT22;40902;45.116;21.296;2023-01-10T12:23:15;205.10;2252.80
55008;DHT22;40902;45.116;21.296;2023-01-10T12:25:43;205.20;2252.80
55008;DHT22;40902;45.116;21.296;2023-01-10T12:28:17;205.20;2252.80
55008;DHT22;40902;45.116;21.296;2023-01-10T12:30:45;205.30;2252.80
55008;DHT22;40902;45.116;21.296;2023-01-10T12:33:19;205.30;2252.80
55008;DHT22;40902;45.116;21.296;2023-01-10T12:35:54;205.30;2252.80
55008;DHT22;40902;45.116;21.296;2023-01-10T12:41:12;205.40;2252.80
55008;DHT22;40902;45.116;21.296;2023-01-10T12:44:02;205.40;2252.80
55008;DHT22;40902;45.116;21.296;2023-01-10T12:46:44;205.40;2252.80
55008;DHT22;40902;45.116;21.296;2023-01-10T12:49:27;205.30;2252.80
55008;DHT22;40902;45.116;21.296;2023-01-10T12:52:00;205.20;2252.80
55008;DHT22;40902;45.116;21.296;2023-01-10T12:54:28;205.20;2252.80
55008;DHT22;40902;45.116;21.296;2023-01-10T12:56:57;205.20;2252.80
55008;DHT22;40902;45.116;21.296;2023-01-10T12:59:40;205.20;2252.80
55008;DHT22;40902;45.116;21.296;2023-01-10T13:02:22;205.30;2252.80
55008;DHT22;40902;45.116;21.296;2023-01-10T13:04:55;205.30;2252.80
55008;DHT22;40902;45.116;21.296;2023-01-10T13:07:24;205.20;2252.80
55008;DHT22;40902;45.116;21.296;2023-01-10T13:09:53;205.20;2252.80
55008;DHT22;40902;45.116;21.296;2023-01-10T13:12:33;205.30;2252.80
55008;DHT22;40902;45.116;21.296;2023-01-10T13:15:11;205.10;2252.80
55008;DHT22;40902;45.116;21.296;2023-01-10T13:17:46;205.10;2252.80
55008;DHT22;40902;45.116;21.296;2023-01-10T13:22:42;205.20;2252.80
55008;DHT22;40902;45.116;21.296;2023-01-10T13:25:37;205.30;2252.80
55008;DHT22;40902;45.116;21.296;2023-01-10T13:28:04;205.20;2252.80
55008;DHT22;40902;45.116;21.296;2023-01-10T13:30:40;205.30;2252.80
55008;DHT22;40902;45.116;21.296;2023-01-10T13:35:45;205.20;2252.80
55008;DHT22;40902;45.116;21.296;2023-01-10T13:51:15;205.30;2252.80
55008;DHT22;40902;45.116;21.296;2023-01-10T13:53:43;205.20;2252.80
55008;DHT22;40902;45.116;21.296;2023-01-10T13:56:40;205.20;2252.80
55008;DHT22;40902;45.116;21.296;2023-01-10T14:01:57;205.30;2252.80
55008;DHT22;40902;45.116;21.296;2023-01-10T14:05:00;205.40;2252.80
55008;DHT22;40902;45.116;21.296;2023-01-10T14:07:43;205.40;2252.80
55008;DHT22;40902;45.116;21.296;2023-01-10T14:10:28;205.40;2252.80
55008;DHT22;40902;45.116;21.296;2023-01-10T14:13:03;205.50;2252.80
55008;DHT22;40902;45.116;21.296;2023-01-10T14:15:51;205.50;2252.80
55008;DHT22;40902;45.116;21.296;2023-01-10T14:18:23;205.50;2252.80
55008;DHT22;40902;45.116;21.296;2023-01-10T14:21:04;205.50;2252.80
55008;DHT22;40902;45.116;21.296;2023-01-10T14:23:34;205.60;2252.80
55008;DHT22;40902;45.116;21.296;2023-01-10T14:26:01;205.70;2252.80
55008;DHT22;40902;45.116;21.296;2023-01-10T14:28:30;205.70;2252.80
55008;DHT22;40902;45.116;21.296;2023-01-10T14:31:01;230.40;2252.80
55008;DHT22;40902;45.116;21.296;2023-01-10T14:33:29;230.40;2252.80
55008;DHT22;40902;45.116;21.296;2023-01-10T14:35:58;230.40;2252.80
55008;DHT22;40902;45.116;21.296;2023-01-10T14:38:25;205.70;2252.80
55008;DHT22;40902;45.116;21.296;2023-01-10T14:40:57;205.70;2252.80
55008;DHT22;40902;45.116;21.296;2023-01-10T14:43:34;205.70;2252.80
55008;DHT22;40902;45.116;21.296;2023-01-10T14:46:18;205.70;2252.80
55008;DHT22;40902;45.116;21.296;2023-01-10T14:48:51;230.40;2252.80
55008;DHT22;40902;45.116;21.296;2023-01-10T14:51:29;230.40;2252.80
55008;DHT22;40902;45.116;21.296;2023-01-10T14:54:09;230.40;2252.80
55008;DHT22;40902;45.116;21.296;2023-01-10T14:56:39;230.50;2252.80
55008;DHT22;40902;45.116;21.296;2023-01-10T14:59:30;230.50;2252.80
55008;DHT22;40902;45.116;21.296;2023-01-10T15:02:08;230.50;2252.80
55008;DHT22;40902;45.116;21.296;2023-01-10T15:04:35;230.60;2252.80
55008;DHT22;40902;45.116;21.296;2023-01-10T15:07:11;230.60;2252.80
55008;DHT22;40902;45.116;21.296;2023-01-10T15:09:37;230.70;2252.80
55008;DHT22;40902;45.116;21.296;2023-01-10T15:12:08;230.70;2252.80
55008;DHT22;40902;45.116;21.296;2023-01-10T15:14:37;230.80;2252.80
55008;DHT22;40902;45.116;21.296;2023-01-10T15:17:03;230.80;2252.80
55008;DHT22;40902;45.116;21.296;2023-01-10T15:19:36;230.80;2252.80
55008;DHT22;40902;45.116;21.296;2023-01-10T15:27:25;231.00;2252.80
55008;DHT22;40902;45.116;21.296;2023-01-10T15:29:52;231.10;2252.80
55008;DHT22;40902;45.116;21.296;2023-01-10T15:32:37;231.10;2252.80
55008;DHT22;40902;45.116;21.296;2023-01-10T15:35:05;231.10;2252.80
55008;DHT22;40902;45.116;21.296;2023-01-10T15:37:35;231.10;2252.80
55008;DHT22;40902;45.116;21.296;2023-01-10T15:40:04;231.10;2252.80
55008;DHT22;40902;45.116;21.296;2023-01-10T15:42:31;231.00;2252.80
55008;DHT22;40902;45.116;21.296;2023-01-10T15:45:17;231.00;2252.80
55008;DHT22;40902;45.116;21.296;2023-01-10T15:47:53;231.00;2252.80
55008;DHT22;40902;45.116;21.296;2023-01-10T15:50:37;231.00;2252.80
55008;DHT22;40902;45.116;21.296;2023-01-10T15:53:10;231.00;2252.80
55008;DHT22;40902;45.116;21.296;2023-01-10T15:55:37;230.90;2252.80
55008;DHT22;40902;45.116;21.296;2023-01-10T15:58:09;230.80;2252.80
55008;DHT22;40902;45.116;21.296;2023-01-10T16:00:43;230.70;2252.80
55008;DHT22;40902;45.116;21.296;2023-01-10T16:03:17;230.70;2252.80
55008;DHT22;40902;45.116;21.296;2023-01-10T16:05:55;230.70;2252.80
55008;DHT22;40902;45.116;21.296;2023-01-10T16:08:25;230.60;2252.80
55008;DHT22;40902;45.116;21.296;2023-01-10T16:10:59;230.70;2252.80
55008;DHT22;40902;45.116;21.296;2023-01-10T16:13:25;230.60;2252.80
55008;DHT22;40902;45.116;21.296;2023-01-10T16:15:54;230.60;2252.80
55008;DHT22;40902;45.116;21.296;2023-01-10T16:18:20;230.50;2252.80
55008;DHT22;40902;45.116;21.296;2023-01-10T16:20:48;230.60;2252.80
55008;DHT22;40902;45.116;21.296;2023-01-10T16:23:23;230.60;2252.80
55008;DHT22;40902;45.116;21.296;2023-01-10T16:25:52;230.50;2252.80
55008;DHT22;40902;45.116;21.296;2023-01-10T16:28:20;230.40;2252.80
55008;DHT22;40902;45.116;21.296;2023-01-10T16:30:47;230.40;2252.80
55008;DHT22;40902;45.116;21.296;2023-01-10T16:33:15;230.40;2252.80
55008;DHT22;40902;45.116;21.296;2023-01-10T16:35:46;230.40;2252.80
55008;DHT22;40902;45.116;21.296;2023-01-10T16:38:13;230.40;2252.80